createdAt,value
2019-01-21T00:02:00.139Z,29.75
2019-01-21T00:04:29.187Z,24.47
2019-01-21T00:06:58.139Z,36.75
2019-01-21T00:09:27.143Z,20.65
2019-01-21T00:11:56.204Z,27.75
2019-01-21T00:14:25.461Z,37.63
2019-01-21T00:16:54.902Z,29.02
2019-01-21T00:19:23.941Z,30.00
2019-01-21T00:21:54.054Z,32.78
2019-01-21T00:24:22.877Z,29.07
2019-01-21T00:26:51.902Z,32.30
2019-01-21T00:29:21.111Z,22.93
2019-01-21T00:31:50.495Z,31.07
2019-01-21T00:34:19.479Z,31.23
2019-01-21T00:36:48.410Z,33.08
2019-01-21T00:39:17.467Z,29.35
2019-01-21T00:41:49.535Z,33.63
2019-01-21T00:44:18.545Z,40.73
2019-01-21T00:46:47.623Z,29.95
2019-01-21T00:49:16.683Z,32.60
2019-01-21T00:51:45.523Z,36.95
2019-01-21T00:54:14.632Z,30.37
2019-01-21T00:56:43.747Z,26.33
2019-01-21T00:59:12.619Z,44.27
2019-01-21T01:01:41.511Z,29.82
2019-01-21T01:04:12.269Z,27.42
2019-01-21T01:06:41.273Z,28.20
2019-01-21T01:09:10.393Z,29.20
2019-01-21T01:11:40.797Z,32.10
2019-01-21T01:14:09.860Z,34.30
2019-01-21T01:16:38.627Z,26.80
2019-01-21T01:19:07.741Z,21.90
2019-01-21T01:21:36.736Z,25.90
2019-01-21T01:24:05.963Z,29.18
2019-01-21T01:26:35.026Z,28.07
2019-01-21T01:29:04.259Z,26.82
2019-01-21T01:31:33.331Z,30.12
2019-01-21T01:34:02.189Z,32.00
2019-01-21T01:36:31.241Z,31.90
2019-01-21T01:39:00.374Z,31.85
2019-01-21T01:41:30.785Z,27.90
2019-01-21T01:43:59.999Z,24.25
2019-01-21T01:46:29.583Z,26.57
2019-01-21T01:48:59.044Z,25.27
2019-01-21T01:51:28.254Z,27.75
2019-01-21T01:53:57.291Z,23.42
2019-01-21T01:56:26.224Z,21.07
2019-01-21T01:58:55.363Z,24.25
2019-01-21T02:01:24.768Z,20.60
2019-01-21T02:03:53.818Z,36.48
2019-01-21T02:06:23.944Z,21.85
2019-01-21T02:08:52.953Z,31.90
2019-01-21T02:11:21.939Z,22.62
2019-01-21T02:13:51.045Z,17.92
2019-01-21T02:16:20.028Z,22.50
2019-01-21T02:18:48.997Z,25.55
2019-01-21T02:21:18.727Z,29.45
2019-01-21T02:23:52.143Z,23.55
2019-01-21T02:26:23.828Z,27.42
2019-01-21T02:29:04.815Z,33.48
2019-01-21T02:32:26.979Z,25.62
2019-01-21T02:35:19.785Z,23.92
2019-01-21T02:38:09.385Z,27.05
2019-01-21T02:40:48.770Z,27.52
2019-01-21T02:43:45.856Z,26.40
2019-01-21T02:46:37.042Z,27.55
2019-01-21T02:49:41.861Z,35.88
2019-01-21T02:52:52.167Z,28.45
2019-01-21T02:56:05.900Z,40.67
2019-01-21T02:58:46.802Z,30.68
2019-01-21T03:01:49.922Z,20.50
2019-01-21T03:04:50.380Z,21.87
2019-01-21T03:07:28.904Z,24.27
2019-01-21T03:10:14.348Z,28.87
2019-01-21T03:13:16.499Z,23.60
2019-01-21T03:16:15.456Z,29.12
2019-01-21T03:19:07.286Z,28.73
2019-01-21T03:22:10.868Z,39.83
2019-01-21T03:25:19.151Z,27.95
2019-01-21T03:28:16.176Z,28.87
2019-01-21T03:31:39.456Z,34.30
2019-01-21T03:34:49.701Z,28.20
2019-01-21T03:37:50.270Z,27.73
2019-01-21T03:40:51.203Z,34.38
2019-01-21T03:43:46.700Z,32.98
2019-01-21T03:46:46.481Z,31.10
2019-01-21T03:49:22.495Z,41.30
2019-01-21T03:52:37.543Z,35.85
2019-01-21T03:55:10.579Z,25.30
2019-01-21T03:58:38.936Z,25.43
2019-01-21T04:01:24.780Z,31.95
2019-01-21T04:04:14.968Z,25.92
2019-01-21T04:07:05.244Z,48.38
2019-01-21T04:10:17.124Z,25.40
2019-01-21T04:13:10.979Z,36.03
2019-01-21T04:16:15.897Z,28.62
2019-01-21T04:19:12.409Z,27.17
2019-01-21T04:21:58.157Z,32.73
2019-01-21T04:25:00.886Z,21.35
2019-01-21T04:27:58.640Z,26.57
2019-01-21T04:31:02.822Z,27.85
2019-01-21T04:33:52.283Z,27.02
2019-01-21T04:36:48.570Z,25.08
2019-01-21T04:39:55.132Z,22.73
2019-01-21T04:42:52.659Z,30.97
2019-01-21T04:46:03.123Z,24.98
2019-01-21T04:49:02.891Z,24.70
2019-01-21T04:51:58.306Z,30.92
2019-01-21T04:54:49.933Z,35.78
2019-01-21T04:57:58.741Z,27.00
2019-01-21T05:01:15.444Z,35.30
2019-01-21T05:03:52.946Z,43.90
2019-01-21T05:07:00.920Z,31.42
2019-01-21T05:09:57.821Z,38.92
2019-01-21T05:12:49.992Z,33.23
2019-01-21T05:15:52.150Z,43.28
2019-01-21T05:18:57.688Z,34.15
2019-01-21T05:21:57.476Z,35.35
2019-01-21T05:24:51.955Z,35.73
2019-01-21T05:27:57.551Z,34.58
2019-01-21T05:30:48.875Z,32.93
2019-01-21T05:33:52.023Z,32.10
2019-01-21T05:36:54.284Z,30.70
2019-01-21T05:39:48.890Z,30.72
2019-01-21T05:42:46.374Z,31.15
2019-01-21T05:45:47.335Z,35.25
2019-01-21T05:48:52.970Z,32.78
2019-01-21T05:52:09.214Z,33.45
2019-01-21T05:55:06.686Z,34.63
2019-01-21T05:58:25.948Z,38.30
2019-01-21T06:01:29.997Z,38.20
2019-01-21T06:04:36.096Z,41.30
2019-01-21T06:07:29.922Z,33.78
2019-01-21T06:10:32.782Z,29.65
2019-01-21T06:13:36.826Z,38.33
2019-01-21T06:16:47.153Z,35.83
2019-01-21T06:19:57.158Z,33.23
2019-01-21T06:22:49.150Z,40.38
2019-01-21T06:25:49.475Z,39.25
2019-01-21T06:29:14.715Z,35.25
2019-01-21T06:32:20.710Z,27.98
2019-01-21T06:35:14.964Z,32.85
2019-01-21T06:38:19.848Z,31.55
2019-01-21T06:41:28.660Z,49.35
2019-01-21T06:44:31.653Z,46.45
2019-01-21T06:47:40.814Z,43.75
2019-01-21T06:50:31.639Z,37.55
2019-01-21T06:53:36.992Z,37.08
2019-01-21T06:56:37.867Z,39.85
2019-01-21T06:59:43.019Z,37.10
2019-01-21T07:03:04.205Z,32.28
2019-01-21T07:05:53.462Z,34.63
2019-01-21T07:09:08.590Z,39.88
2019-01-21T07:12:00.615Z,31.77
2019-01-21T07:14:47.861Z,36.17
2019-01-21T07:17:58.283Z,35.30
2019-01-21T07:20:53.728Z,34.25
2019-01-21T07:23:37.603Z,40.25
2019-01-21T07:26:50.789Z,36.68
2019-01-21T07:30:06.986Z,38.05
2019-01-21T07:32:56.727Z,45.30
2019-01-21T07:35:47.803Z,39.92
2019-01-21T07:38:48.420Z,32.65
2019-01-21T07:42:04.261Z,43.85
2019-01-21T07:45:09.330Z,41.77
2019-01-21T07:48:20.947Z,46.75
2019-01-21T07:51:37.493Z,29.87
2019-01-21T07:54:57.008Z,42.75
2019-01-21T07:58:00.597Z,38.85
2019-01-21T08:01:19.893Z,35.40
2019-01-21T08:04:28.761Z,35.58
2019-01-21T08:07:38.811Z,37.00
2019-01-21T08:10:54.404Z,39.90
2019-01-21T08:13:49.527Z,41.37
2019-01-21T08:17:05.547Z,34.25
2019-01-21T08:20:10.003Z,45.55
2019-01-21T08:23:06.804Z,53.63
2019-01-21T08:26:16.029Z,40.33
2019-01-21T08:29:00.888Z,48.80
2019-01-21T08:31:42.440Z,54.20
2019-01-21T08:35:04.667Z,46.37
2019-01-21T08:38:05.859Z,42.93
2019-01-21T08:41:27.219Z,50.65
2019-01-21T08:44:40.973Z,43.87
2019-01-21T08:47:32.103Z,44.13
2019-01-21T08:50:27.067Z,50.30
2019-01-21T08:53:24.837Z,46.42
2019-01-21T08:56:07.605Z,44.10
2019-01-21T08:59:12.559Z,35.45
2019-01-21T09:02:18.103Z,32.60
2019-01-21T09:05:21.413Z,34.75
2019-01-21T09:08:14.807Z,30.80
2019-01-21T09:11:32.255Z,39.67
2019-01-21T09:14:15.445Z,40.70
2019-01-21T09:17:18.087Z,34.65
2019-01-21T09:20:25.351Z,40.95
2019-01-21T09:23:08.279Z,28.50
2019-01-21T09:26:05.106Z,35.98
2019-01-21T09:29:05.918Z,33.95
2019-01-21T09:32:12.278Z,44.25
2019-01-21T09:35:22.636Z,33.05
2019-01-21T09:38:45.073Z,40.45
2019-01-21T09:41:52.133Z,39.33
2019-01-21T09:44:32.867Z,48.17
2019-01-21T09:47:01.693Z,44.35
2019-01-21T09:49:29.368Z,48.35
2019-01-21T09:52:16.086Z,44.80
2019-01-21T09:54:45.171Z,48.33
2019-01-21T09:57:23.014Z,44.13
2019-01-21T10:00:02.094Z,52.95
2019-01-21T10:02:49.880Z,47.67
2019-01-21T10:05:19.588Z,41.10
2019-01-21T10:08:17.770Z,45.65
2019-01-21T10:11:32.390Z,40.55
2019-01-21T10:14:37.944Z,38.60
2019-01-21T10:17:32.329Z,46.18
2019-01-21T10:20:39.820Z,38.30
2019-01-21T10:23:53.132Z,46.95
2019-01-21T10:27:21.374Z,47.67
2019-01-21T10:30:34.541Z,42.45
2019-01-21T10:33:37.610Z,39.13
2019-01-21T10:37:18.422Z,46.37
2019-01-21T10:40:08.018Z,42.03
2019-01-21T10:43:13.219Z,50.75
2019-01-21T10:46:32.691Z,42.45
2019-01-21T10:49:33.167Z,52.10
2019-01-21T10:52:35.228Z,47.35
2019-01-21T10:55:14.536Z,50.50
2019-01-21T10:57:52.477Z,39.88
2019-01-21T11:01:17.754Z,46.77
2019-01-21T11:04:01.338Z,45.52
2019-01-21T11:07:01.724Z,54.25
2019-01-21T11:09:39.589Z,54.05
2019-01-21T11:12:32.597Z,54.60
2019-01-21T11:15:28.650Z,47.45
2019-01-21T11:18:38.503Z,47.30
2019-01-21T11:21:51.774Z,56.90
2019-01-21T11:25:10.607Z,46.53
2019-01-21T11:28:10.957Z,52.95
2019-01-21T11:31:03.257Z,42.80
2019-01-21T11:33:54.127Z,43.28
2019-01-21T11:36:52.740Z,50.85
2019-01-21T11:40:05.493Z,42.08
2019-01-21T11:43:20.862Z,42.40
2019-01-21T11:46:25.896Z,51.73
2019-01-21T11:49:14.380Z,39.73
2019-01-21T11:52:17.551Z,43.00
2019-01-21T11:55:34.288Z,44.23
2019-01-21T11:58:33.833Z,38.95
2019-01-21T12:01:22.340Z,49.75
2019-01-21T12:04:10.098Z,43.17
2019-01-21T12:06:48.558Z,48.35
2019-01-21T12:09:44.348Z,46.00
2019-01-21T12:12:32.766Z,44.10
2019-01-21T12:15:40.169Z,34.25
2019-01-21T12:18:39.524Z,45.20
2019-01-21T12:21:20.794Z,42.65
2019-01-21T12:24:07.352Z,54.30
2019-01-21T12:27:20.444Z,44.33
2019-01-21T12:30:25.048Z,37.28
2019-01-21T12:33:15.522Z,40.88
2019-01-21T12:35:55.618Z,42.20
2019-01-21T12:38:45.166Z,38.33
2019-01-21T12:41:52.501Z,38.35
2019-01-21T12:44:58.500Z,47.95
2019-01-21T12:47:39.758Z,36.55
2019-01-21T12:50:44.322Z,41.00
2019-01-21T12:53:29.247Z,45.23
2019-01-21T12:56:46.400Z,36.58
2019-01-21T12:59:39.358Z,43.60
2019-01-21T13:02:23.998Z,39.33
2019-01-21T13:05:01.716Z,41.73
2019-01-21T13:07:47.938Z,52.40
2019-01-21T13:10:47.985Z,43.35
2019-01-21T13:13:51.083Z,47.40
2019-01-21T13:17:00.565Z,40.92
2019-01-21T13:20:05.335Z,40.23
2019-01-21T13:22:58.535Z,42.33
2019-01-21T13:25:49.853Z,47.15
2019-01-21T13:28:37.409Z,45.85
2019-01-21T13:31:40.877Z,43.38
2019-01-21T13:35:00.308Z,48.68
2019-01-21T13:38:04.933Z,45.73
2019-01-21T13:41:15.243Z,49.83
2019-01-21T13:43:58.879Z,50.50
2019-01-21T13:47:07.688Z,37.30
2019-01-21T13:50:01.557Z,42.85
2019-01-21T13:53:20.062Z,44.15
2019-01-21T13:56:29.448Z,47.35
2019-01-21T13:59:22.495Z,42.60
2019-01-21T14:02:06.196Z,44.27
2019-01-21T14:05:06.233Z,47.23
2019-01-21T14:08:28.918Z,40.90
2019-01-21T14:11:14.876Z,40.80
2019-01-21T14:13:53.713Z,42.93
2019-01-21T14:16:48.912Z,48.02
2019-01-21T14:19:46.060Z,41.90
2019-01-21T14:23:16.964Z,43.02
2019-01-21T14:26:27.373Z,45.83
2019-01-21T14:29:31.325Z,39.98
2019-01-21T14:32:40.466Z,42.00
2019-01-21T14:35:19.558Z,38.95
2019-01-21T14:38:31.571Z,36.60
2019-01-21T14:41:37.623Z,45.28
2019-01-21T14:44:42.823Z,40.88
2019-01-21T14:47:47.667Z,48.42
2019-01-21T14:50:52.171Z,45.30
2019-01-21T14:53:42.139Z,36.25
2019-01-21T14:56:15.266Z,38.35
2019-01-21T14:59:06.789Z,41.30
2019-01-21T15:01:54.028Z,47.23
2019-01-21T15:05:05.545Z,43.42
2019-01-21T15:08:02.475Z,39.60
2019-01-21T15:11:04.218Z,44.05
2019-01-21T15:13:56.825Z,46.08
2019-01-21T15:16:49.872Z,36.77
2019-01-21T15:19:30.601Z,41.20
2019-01-21T15:22:39.494Z,44.27
2019-01-21T15:25:54.420Z,49.33
2019-01-21T15:28:48.632Z,44.33
2019-01-21T15:31:48.360Z,41.65
2019-01-21T15:35:08.159Z,44.10
2019-01-21T15:38:26.600Z,45.60
2019-01-21T15:41:52.017Z,38.38
2019-01-21T15:44:41.200Z,53.95
2019-01-21T15:47:44.283Z,36.50
2019-01-21T15:50:34.149Z,52.80
2019-01-21T15:53:43.199Z,40.95
2019-01-21T15:56:51.228Z,40.12
2019-01-21T15:59:46.192Z,53.98
2019-01-21T16:02:37.285Z,50.70
2019-01-21T16:05:36.875Z,53.38
2019-01-21T16:08:45.602Z,54.23
2019-01-21T16:11:39.184Z,42.93
2019-01-21T16:14:15.879Z,62.83
2019-01-21T16:17:11.918Z,41.42
2019-01-21T16:19:54.042Z,45.25
2019-01-21T16:23:05.540Z,48.10
2019-01-21T16:26:19.861Z,51.35
2019-01-21T16:29:35.550Z,52.65
2019-01-21T16:32:14.281Z,48.78
2019-01-21T16:35:26.404Z,47.45
2019-01-21T16:38:32.224Z,47.20
2019-01-21T16:41:31.663Z,44.65
2019-01-21T16:44:00.540Z,59.05
2019-01-21T16:46:29.600Z,43.90
2019-01-21T16:48:58.490Z,48.23
2019-01-21T16:51:29.095Z,52.98
2019-01-21T16:53:57.991Z,55.85
2019-01-21T16:56:26.874Z,53.55
2019-01-21T16:58:55.867Z,57.93
2019-01-21T17:01:26.604Z,51.40
2019-01-21T17:03:55.776Z,57.65
2019-01-21T17:06:27.724Z,52.60
2019-01-21T17:08:56.899Z,48.98
2019-01-21T17:11:25.897Z,65.17
2019-01-21T17:13:54.891Z,45.90
2019-01-21T17:16:24.025Z,48.87
2019-01-21T17:18:52.927Z,49.65
2019-01-21T17:21:26.952Z,53.95
2019-01-21T17:23:52.568Z,50.95
2019-01-21T17:26:21.644Z,53.83
2019-01-21T17:28:50.520Z,45.48
2019-01-21T17:31:19.603Z,45.25
2019-01-21T17:33:48.668Z,59.03
2019-01-21T17:36:18.307Z,56.20
2019-01-21T17:38:47.119Z,52.90
2019-01-21T17:41:17.474Z,71.65
2019-01-21T17:43:46.807Z,65.90
2019-01-21T17:46:15.947Z,65.50
2019-01-21T17:48:45.039Z,59.65
2019-01-21T17:51:14.733Z,53.17
2019-01-21T17:53:43.618Z,53.08
2019-01-21T17:56:12.657Z,53.35
2019-01-21T17:58:41.677Z,56.08
2019-01-21T18:01:11.793Z,55.67
2019-01-21T18:03:41.273Z,58.45
2019-01-21T18:06:13.563Z,56.15
2019-01-21T18:08:42.469Z,51.60
2019-01-21T18:11:11.786Z,60.73
2019-01-21T18:13:40.911Z,58.42
2019-01-21T18:16:09.941Z,60.55
2019-01-21T18:18:38.796Z,55.40
2019-01-21T18:21:07.890Z,63.58
2019-01-21T18:23:37.298Z,54.10
2019-01-21T18:26:06.245Z,61.15
2019-01-21T18:28:35.471Z,74.47
2019-01-21T18:31:04.450Z,66.12
2019-01-21T18:33:35.175Z,65.65
2019-01-21T18:36:04.484Z,57.95
2019-01-21T18:38:33.704Z,56.58
2019-01-21T18:41:04.185Z,67.65
2019-01-21T18:43:33.024Z,59.03
2019-01-21T18:46:02.073Z,47.95
2019-01-21T18:48:31.054Z,56.40
2019-01-21T18:51:00.011Z,61.98
2019-01-21T18:53:28.952Z,54.93
2019-01-21T18:55:58.009Z,57.00
2019-01-21T18:58:26.934Z,53.55
2019-01-21T19:00:56.172Z,59.93
2019-01-21T19:03:25.173Z,70.22
2019-01-21T19:05:54.108Z,64.75
2019-01-21T19:08:23.090Z,63.48
2019-01-21T19:10:51.986Z,63.73
2019-01-21T19:13:20.863Z,62.75
2019-01-21T19:15:49.942Z,60.28
2019-01-21T19:18:19.177Z,56.20
2019-01-21T19:20:48.256Z,73.87
2019-01-21T19:23:17.144Z,52.03
2019-01-21T19:25:46.173Z,63.63
2019-01-21T19:28:15.033Z,70.97
2019-01-21T19:30:46.769Z,61.25
2019-01-21T19:33:15.733Z,65.42
2019-01-21T19:35:44.694Z,59.00
2019-01-21T19:38:13.745Z,63.05
2019-01-21T19:40:43.022Z,65.47
2019-01-21T19:43:12.045Z,72.32
2019-01-21T19:45:45.676Z,58.90
2019-01-21T19:48:15.330Z,69.25
2019-01-21T19:50:44.341Z,57.95
2019-01-21T19:53:13.372Z,64.50
2019-01-21T19:55:43.744Z,73.60
2019-01-21T19:58:13.212Z,61.08
2019-01-21T20:00:43.608Z,62.55
2019-01-21T20:03:12.546Z,69.25
2019-01-21T20:05:41.572Z,67.47
2019-01-21T20:08:10.633Z,64.35
2019-01-21T20:10:42.841Z,72.72
2019-01-21T20:13:12.075Z,64.42
2019-01-21T20:15:41.019Z,60.67
2019-01-21T20:18:11.467Z,81.17
2019-01-21T20:20:41.603Z,64.75
2019-01-21T20:23:11.452Z,58.68
2019-01-21T20:25:41.001Z,60.50
2019-01-21T20:28:10.030Z,60.98
2019-01-21T20:30:38.999Z,65.20
2019-01-21T20:33:08.179Z,62.40
2019-01-21T20:35:37.219Z,60.80
2019-01-21T20:38:06.199Z,77.10
2019-01-21T20:40:37.015Z,58.87
2019-01-21T20:43:06.086Z,59.15
2019-01-21T20:45:35.102Z,56.13
2019-01-21T20:48:04.153Z,58.28
2019-01-21T20:50:33.427Z,71.70
2019-01-21T20:53:02.503Z,68.80
2019-01-21T20:55:31.856Z,64.22
2019-01-21T20:58:03.619Z,60.25
2019-01-21T21:00:32.795Z,63.30
2019-01-21T21:03:02.481Z,66.07
2019-01-21T21:05:31.867Z,54.88
2019-01-21T21:08:01.546Z,63.00
2019-01-21T21:10:31.147Z,65.52
2019-01-21T21:13:00.629Z,70.83
2019-01-21T21:15:32.345Z,71.82
2019-01-21T21:18:01.810Z,62.88
2019-01-21T21:20:31.151Z,66.55
2019-01-21T21:23:00.884Z,72.42
2019-01-21T21:25:30.657Z,72.72
2019-01-21T21:28:00.878Z,79.30
2019-01-21T21:30:35.639Z,77.87
2019-01-21T21:33:08.215Z,78.95
2019-01-21T21:35:40.525Z,65.40
2019-01-21T21:38:10.316Z,69.97
2019-01-21T21:40:39.923Z,63.75
2019-01-21T21:43:09.363Z,65.97
2019-01-21T21:45:39.293Z,59.33
2019-01-21T21:48:09.566Z,72.85
2019-01-21T21:50:38.947Z,65.72
2019-01-21T21:53:10.655Z,63.20
2019-01-21T21:55:40.090Z,66.62
2019-01-21T21:58:09.615Z,63.63
2019-01-21T22:00:40.199Z,62.78
2019-01-21T22:03:10.273Z,63.50
2019-01-21T22:05:40.138Z,61.40
2019-01-21T22:08:12.538Z,58.68
2019-01-21T22:10:42.311Z,74.07
2019-01-21T22:13:11.835Z,56.28
2019-01-21T22:15:41.297Z,70.40
2019-01-21T22:18:10.719Z,72.37
2019-01-21T22:20:40.242Z,75.70
2019-01-21T22:23:09.995Z,66.05
2019-01-21T22:25:42.225Z,56.92
2019-01-21T22:28:15.177Z,63.85
2019-01-21T22:30:44.069Z,58.78
2019-01-21T22:33:15.019Z,65.28
2019-01-21T22:35:44.028Z,80.50
2019-01-21T22:38:13.121Z,77.80
2019-01-21T22:40:42.141Z,80.72
2019-01-21T22:43:11.138Z,65.15
2019-01-21T22:45:43.451Z,68.60
2019-01-21T22:48:12.681Z,65.95
2019-01-21T22:50:41.628Z,64.62
2019-01-21T22:53:10.519Z,62.08
2019-01-21T22:55:39.734Z,68.42
2019-01-21T22:58:09.022Z,62.48
2019-01-21T23:00:57.692Z,64.10
2019-01-21T23:03:27.880Z,77.97
2019-01-21T23:05:56.853Z,62.13
2019-01-21T23:08:28.113Z,64.75
2019-01-21T23:10:58.542Z,60.40
2019-01-21T23:13:27.464Z,69.45
2019-01-21T23:15:56.353Z,69.12
2019-01-21T23:18:27.006Z,62.05
2019-01-21T23:20:55.907Z,52.75
2019-01-21T23:23:24.820Z,77.53
2019-01-21T23:25:58.225Z,69.80
2019-01-21T23:28:27.279Z,64.27
2019-01-21T23:30:56.146Z,66.05
2019-01-21T23:33:25.339Z,66.70
2019-01-21T23:35:56.697Z,63.17
2019-01-21T23:38:25.706Z,78.12
2019-01-21T23:40:54.584Z,70.52
2019-01-21T23:43:23.647Z,71.97
2019-01-21T23:45:52.801Z,64.50
2019-01-21T23:48:22.278Z,62.80
2019-01-21T23:50:51.210Z,65.37
2019-01-21T23:53:20.213Z,74.55
2019-01-21T23:55:49.303Z,68.67
2019-01-21T23:58:18.544Z,69.32
